createdAt,value
2023-03-24T00:02:24.069Z,11.10
2023-03-24T00:04:58.768Z,10.00
2023-03-24T00:07:35.372Z,9.20
2023-03-24T00:10:11.352Z,8.50
2023-03-24T00:12:43.921Z,8.10
2023-03-24T00:15:19.691Z,8.00
2023-03-24T00:17:53.236Z,7.60
2023-03-24T00:20:26.716Z,7.10
2023-03-24T00:23:02.110Z,7.30
2023-03-24T00:25:36.500Z,7.20
2023-03-24T00:28:11.256Z,7.00
2023-03-24T00:30:52.030Z,7.10
2023-03-24T00:33:28.527Z,7.50
2023-03-24T00:36:04.090Z,7.50
2023-03-24T00:38:36.879Z,7.10
2023-03-24T00:41:12.111Z,7.20
2023-03-24T00:43:46.117Z,6.50
2023-03-24T00:46:30.101Z,6.80
2023-03-24T00:49:06.344Z,6.10
2023-03-24T00:51:39.877Z,6.10
2023-03-24T00:54:14.117Z,6.60
2023-03-24T00:56:50.509Z,6.40
2023-03-24T00:59:24.859Z,5.90
2023-03-24T01:01:58.008Z,5.50
2023-03-24T01:04:32.089Z,5.20
2023-03-24T01:07:04.723Z,5.20
2023-03-24T01:09:39.129Z,5.10
2023-03-24T01:12:11.664Z,5.10
2023-03-24T01:14:44.367Z,5.10
2023-03-24T01:17:16.487Z,4.90
2023-03-24T01:19:48.848Z,4.70
2023-03-24T01:22:21.878Z,4.80
2023-03-24T01:24:54.652Z,4.70
2023-03-24T01:27:29.637Z,4.80
2023-03-24T01:30:05.747Z,4.60
2023-03-24T01:32:38.950Z,4.70
2023-03-24T01:35:12.916Z,4.90
2023-03-24T01:37:45.477Z,5.10
2023-03-24T01:40:22.333Z,5.20
2023-03-24T01:42:57.589Z,5.40
2023-03-24T01:46:08.062Z,5.20
2023-03-24T01:48:46.753Z,4.60
2023-03-24T01:51:23.852Z,4.80
2023-03-24T01:53:59.356Z,4.70
2023-03-24T01:56:38.158Z,4.70
2023-03-24T01:59:13.868Z,5.10
2023-03-24T02:01:49.363Z,5.10
2023-03-24T02:04:25.856Z,5.00
2023-03-24T02:06:58.673Z,5.30
2023-03-24T02:09:31.038Z,5.40
2023-03-24T02:12:05.240Z,5.60
2023-03-24T02:14:38.563Z,5.60
2023-03-24T02:17:26.296Z,5.30
2023-03-24T02:20:29.918Z,5.80
2023-03-24T02:23:34.730Z,6.00
2023-03-24T02:26:28.769Z,6.20
2023-03-24T02:29:12.750Z,6.10
2023-03-24T02:32:16.267Z,6.50
2023-03-24T02:35:12.190Z,5.80
2023-03-24T02:38:05.248Z,5.40
2023-03-24T02:40:46.614Z,6.00
2023-03-24T02:43:28.212Z,5.10
2023-03-24T02:46:14.029Z,5.20
2023-03-24T02:49:01.329Z,5.20
2023-03-24T02:51:36.433Z,5.20
2023-03-24T02:54:12.212Z,5.20
2023-03-24T02:56:50.174Z,5.30
2023-03-24T02:59:24.099Z,5.00
2023-03-24T03:02:03.882Z,5.00
2023-03-24T03:04:38.601Z,5.40
2023-03-24T03:07:16.941Z,5.70
2023-03-24T03:09:57.571Z,5.90
2023-03-24T03:12:34.466Z,6.30
2023-03-24T03:15:11.446Z,7.00
2023-03-24T03:17:53.277Z,7.10
2023-03-24T03:20:31.228Z,7.70
2023-03-24T03:23:05.771Z,7.60
2023-03-24T03:25:42.396Z,8.20
2023-03-24T03:28:20.853Z,8.20
2023-03-24T03:30:56.159Z,8.20
2023-03-24T03:33:32.121Z,8.50
2023-03-24T03:36:12.131Z,8.70
2023-03-24T03:38:49.281Z,8.80
2023-03-24T03:41:21.910Z,8.70
2023-03-24T03:43:54.662Z,9.10
2023-03-24T03:46:28.964Z,9.60
2023-03-24T03:49:02.670Z,9.50
2023-03-24T03:51:36.194Z,11.20
2023-03-24T03:54:11.574Z,10.50
2023-03-24T03:56:46.676Z,10.60
2023-03-24T03:59:33.967Z,9.20
2023-03-24T04:02:18.206Z,9.60
2023-03-24T04:05:06.821Z,8.20
2023-03-24T04:07:54.197Z,8.80
2023-03-24T04:10:32.561Z,9.10
2023-03-24T04:13:15.727Z,10.00
2023-03-24T04:15:54.762Z,10.00
2023-03-24T04:18:46.173Z,10.30
2023-03-24T04:21:33.921Z,10.30
2023-03-24T04:24:20.096Z,9.90
2023-03-24T04:27:01.182Z,11.00
2023-03-24T04:29:42.404Z,11.30
2023-03-24T04:32:20.217Z,11.50
2023-03-24T04:35:02.659Z,12.00
2023-03-24T04:37:38.560Z,12.80
2023-03-24T04:40:14.970Z,11.80
2023-03-24T04:42:52.908Z,11.80
2023-03-24T04:45:27.092Z,11.30
2023-03-24T04:48:03.958Z,11.30
2023-03-24T04:50:39.829Z,11.30
2023-03-24T04:53:13.652Z,11.80
2023-03-24T04:56:13.173Z,12.00
2023-03-24T04:58:45.308Z,12.30
2023-03-24T05:01:22.110Z,12.10
2023-03-24T05:03:55.724Z,12.70
2023-03-24T05:06:31.549Z,13.80
2023-03-24T05:09:05.810Z,14.20
2023-03-24T05:11:39.311Z,13.60
2023-03-24T05:14:11.348Z,13.50
2023-03-24T05:16:45.651Z,14.00
2023-03-24T05:19:21.870Z,13.10
2023-03-24T05:21:55.020Z,13.30
2023-03-24T05:24:28.412Z,14.80
2023-03-24T05:27:02.599Z,15.30
2023-03-24T05:29:36.619Z,15.50
2023-03-24T05:32:09.365Z,14.50
2023-03-24T05:34:41.961Z,13.90
2023-03-24T05:37:18.815Z,13.50
2023-03-24T05:39:50.762Z,13.10
2023-03-24T05:42:22.844Z,13.00
2023-03-24T05:44:55.400Z,12.80
2023-03-24T05:47:28.384Z,12.50
2023-03-24T05:50:04.293Z,12.30
2023-03-24T05:52:37.008Z,12.60
2023-03-24T05:55:10.983Z,12.90
2023-03-24T05:57:43.658Z,13.10
2023-03-24T06:00:17.973Z,12.90
2023-03-24T06:02:50.727Z,13.40
2023-03-24T06:05:31.614Z,13.30
2023-03-24T06:08:06.081Z,12.80
2023-03-24T06:10:38.681Z,13.00
2023-03-24T06:13:14.953Z,13.10
2023-03-24T06:15:48.592Z,13.30
2023-03-24T06:18:21.586Z,14.00
2023-03-24T06:20:57.138Z,13.40
2023-03-24T06:23:31.222Z,13.70
2023-03-24T06:26:03.650Z,13.50
2023-03-24T06:28:39.953Z,13.40
2023-03-24T06:31:18.744Z,13.60
2023-03-24T06:33:51.090Z,13.60
2023-03-24T06:36:25.859Z,13.80
2023-03-24T06:38:59.504Z,13.70
2023-03-24T06:41:32.562Z,13.70
2023-03-24T06:44:06.415Z,14.00
2023-03-24T06:46:38.296Z,13.60
2023-03-24T06:49:11.111Z,13.40
2023-03-24T06:51:43.554Z,13.60
2023-03-24T06:54:19.816Z,14.60
2023-03-24T06:56:58.751Z,14.90
2023-03-24T06:59:31.644Z,15.70
2023-03-24T07:02:04.651Z,17.60
2023-03-24T07:04:37.035Z,17.60
2023-03-24T07:07:52.710Z,16.50
2023-03-24T07:10:08.770Z,17.70
2023-03-24T07:12:43.635Z,17.50
2023-03-24T07:15:16.442Z,16.90
2023-03-24T07:17:49.196Z,15.90
2023-03-24T07:20:22.229Z,16.30
2023-03-24T07:22:58.317Z,16.50
2023-03-24T07:25:30.910Z,16.20
2023-03-24T07:28:04.460Z,15.70
2023-03-24T07:30:51.229Z,17.50
2023-03-24T07:33:27.477Z,16.00
2023-03-24T07:36:01.009Z,15.20
2023-03-24T07:38:35.920Z,14.70
2023-03-24T07:41:08.935Z,14.80
2023-03-24T07:43:42.237Z,16.10
2023-03-24T07:46:15.890Z,19.60
2023-03-24T07:48:50.631Z,19.00
2023-03-24T07:51:25.462Z,16.10
2023-03-24T07:53:57.891Z,14.20
2023-03-24T07:56:34.430Z,14.00
2023-03-24T07:59:06.388Z,13.10
2023-03-24T08:01:41.565Z,12.80
2023-03-24T08:04:16.259Z,13.30
2023-03-24T08:06:50.117Z,13.60
2023-03-24T08:09:25.191Z,14.60
2023-03-24T08:12:07.119Z,13.50
2023-03-24T08:14:46.330Z,13.20
2023-03-24T08:17:18.196Z,13.60
2023-03-24T08:20:00.185Z,13.80
2023-03-24T08:22:34.491Z,12.90
2023-03-24T08:25:11.055Z,13.10
2023-03-24T08:27:45.620Z,11.90
2023-03-24T08:30:27.409Z,12.00
2023-03-24T08:33:06.688Z,11.40
2023-03-24T08:35:50.394Z,10.90
2023-03-24T08:38:32.974Z,9.90
2023-03-24T08:41:14.196Z,9.80
2023-03-24T08:43:49.685Z,9.40
2023-03-24T08:46:26.236Z,9.00
2023-03-24T08:49:06.066Z,8.70
2023-03-24T08:51:45.281Z,8.00
2023-03-24T08:54:24.721Z,8.50
2023-03-24T08:57:03.191Z,7.10
2023-03-24T08:59:50.872Z,7.90
2023-03-24T09:02:33.726Z,7.50
2023-03-24T09:05:10.061Z,8.30
2023-03-24T09:07:47.173Z,8.30
2023-03-24T09:10:28.405Z,7.40
2023-03-24T09:13:08.483Z,7.10
2023-03-24T09:15:54.005Z,5.80
2023-03-24T09:18:35.370Z,6.50
2023-03-24T09:21:11.310Z,6.70
2023-03-24T09:23:51.045Z,6.20
2023-03-24T09:26:29.696Z,6.10
2023-03-24T09:29:08.161Z,5.60
2023-03-24T09:31:47.245Z,5.50
2023-03-24T09:34:25.296Z,5.50
2023-03-24T09:37:11.366Z,5.50
2023-03-24T09:39:49.562Z,5.50
2023-03-24T09:42:27.017Z,6.20
2023-03-24T09:45:03.595Z,6.20
2023-03-24T09:47:46.482Z,6.30
2023-03-24T09:50:29.564Z,6.10
2023-03-24T09:53:11.273Z,5.20
2023-03-24T09:55:46.534Z,5.70
2023-03-24T09:58:24.358Z,5.90
2023-03-24T10:00:57.889Z,5.80
2023-03-24T10:03:56.583Z,5.50
2023-03-24T10:06:31.395Z,5.40
2023-03-24T10:09:16.070Z,5.60
2023-03-24T10:11:53.269Z,6.30
2023-03-24T10:14:33.614Z,6.80
2023-03-24T10:17:13.237Z,6.90
2023-03-24T10:19:54.116Z,6.80
2023-03-24T10:22:33.858Z,6.80
2023-03-24T10:25:13.652Z,7.40
2023-03-24T10:27:53.973Z,6.70
2023-03-24T10:30:29.634Z,7.40
2023-03-24T10:33:04.516Z,7.10
2023-03-24T10:35:38.862Z,6.90
2023-03-24T10:38:20.360Z,7.20
2023-03-24T10:40:52.713Z,7.30
2023-03-24T10:43:28.314Z,7.10
2023-03-24T10:46:01.248Z,6.80
2023-03-24T10:48:46.537Z,6.80
2023-03-24T10:51:21.415Z,7.00
2023-03-24T10:53:54.381Z,6.60
2023-03-24T10:56:43.374Z,6.20
2023-03-24T10:59:27.667Z,6.10
2023-03-24T11:02:08.646Z,5.90
2023-03-24T11:04:43.181Z,6.00
2023-03-24T11:07:20.935Z,6.20
2023-03-24T11:10:03.888Z,6.10
2023-03-24T11:12:38.888Z,6.60
2023-03-24T11:15:23.314Z,6.30
2023-03-24T11:18:01.512Z,6.30
2023-03-24T11:20:43.394Z,6.80
2023-03-24T11:23:33.100Z,5.80
2023-03-24T11:26:14.128Z,5.90
2023-03-24T11:28:52.323Z,6.40
2023-03-24T11:31:30.837Z,6.10
2023-03-24T11:34:09.396Z,6.00
2023-03-24T11:36:46.900Z,6.00
2023-03-24T11:39:22.742Z,6.00
2023-03-24T11:42:03.202Z,6.40
2023-03-24T11:44:51.379Z,5.90
2023-03-24T11:47:28.979Z,6.20
2023-03-24T11:50:16.518Z,6.00
2023-03-24T11:52:50.553Z,5.70
2023-03-24T11:55:28.988Z,6.30
2023-03-24T11:58:04.443Z,5.70
2023-03-24T12:00:42.237Z,5.90
2023-03-24T12:03:42.244Z,6.20
2023-03-24T12:06:23.494Z,6.80
2023-03-24T12:09:06.605Z,6.60
2023-03-24T12:11:53.221Z,7.00
2023-03-24T12:14:32.027Z,6.60
2023-03-24T12:17:08.635Z,6.70
2023-03-24T12:20:16.491Z,6.50
2023-03-24T12:22:56.695Z,7.40
2023-03-24T12:25:48.405Z,6.50
2023-03-24T12:28:36.452Z,6.80
2023-03-24T12:31:19.590Z,7.00
2023-03-24T12:33:57.485Z,6.50
2023-03-24T12:36:44.426Z,6.50
2023-03-24T12:39:19.678Z,6.60
2023-03-24T12:42:02.091Z,6.40
2023-03-24T12:45:07.936Z,6.90
2023-03-24T12:47:58.443Z,6.50
2023-03-24T12:50:36.478Z,6.70
2023-03-24T12:53:25.638Z,6.80
2023-03-24T12:56:04.508Z,6.40
2023-03-24T12:58:46.185Z,6.80
2023-03-24T13:01:38.596Z,6.70
2023-03-24T13:04:14.661Z,7.00
2023-03-24T13:06:53.263Z,7.00
2023-03-24T13:09:35.789Z,6.70
2023-03-24T13:12:14.196Z,6.80
2023-03-24T13:14:57.888Z,6.60
2023-03-24T13:17:37.501Z,6.60
2023-03-24T13:20:31.651Z,6.60
2023-03-24T13:23:43.764Z,6.50
2023-03-24T13:26:26.959Z,7.30
2023-03-24T13:29:19.801Z,7.00
2023-03-24T13:31:59.729Z,6.70
2023-03-24T13:34:40.306Z,6.90
2023-03-24T13:37:18.867Z,7.40
2023-03-24T13:39:58.198Z,7.50
2023-03-24T13:42:36.970Z,7.20
2023-03-24T13:45:27.153Z,8.20
2023-03-24T13:48:20.045Z,7.80
2023-03-24T13:50:58.418Z,7.70
2023-03-24T13:53:47.162Z,8.00
2023-03-24T13:56:27.667Z,8.00
2023-03-24T13:59:30.780Z,7.80
2023-03-24T14:02:46.540Z,8.20
2023-03-24T14:05:51.928Z,7.80
2023-03-24T14:08:48.893Z,8.00
2023-03-24T14:11:49.800Z,8.00
2023-03-24T14:14:26.530Z,8.30
2023-03-24T14:17:20.375Z,8.80
2023-03-24T14:20:26.991Z,8.30
2023-03-24T14:23:06.524Z,8.10
2023-03-24T14:25:41.292Z,8.60
2023-03-24T14:28:30.789Z,8.40
2023-03-24T14:31:17.305Z,8.30
2023-03-24T14:34:06.203Z,8.40
2023-03-24T14:36:45.349Z,8.10
2023-03-24T14:39:37.241Z,7.70
2023-03-24T14:43:02.912Z,17.50
2023-03-24T14:46:04.267Z,8.00
2023-03-24T14:48:42.848Z,7.90
2023-03-24T14:51:39.608Z,8.60
2023-03-24T14:54:21.824Z,7.50
2023-03-24T14:57:04.264Z,7.90
2023-03-24T14:59:56.034Z,7.50
2023-03-24T15:02:42.981Z,7.90
2023-03-24T15:05:53.509Z,8.10
2023-03-24T15:08:32.116Z,6.70
2023-03-24T15:11:06.542Z,6.20
2023-03-24T15:13:44.440Z,6.10
2023-03-24T15:16:30.052Z,5.60
2023-03-24T15:19:09.712Z,5.70
2023-03-24T15:21:49.425Z,5.80
2023-03-24T15:24:30.989Z,6.30
2023-03-24T15:27:23.093Z,6.20
2023-03-24T15:29:59.725Z,6.20
2023-03-24T15:32:40.377Z,6.10
2023-03-24T15:35:17.840Z,6.50
2023-03-24T15:37:56.546Z,6.00
2023-03-24T15:40:37.660Z,6.10
2023-03-24T15:43:23.590Z,6.00
2023-03-24T15:46:12.028Z,7.40
2023-03-24T15:48:52.072Z,6.50
2023-03-24T15:51:50.247Z,6.30
2023-03-24T15:54:25.864Z,9.10
2023-03-24T15:57:12.767Z,12.40
2023-03-24T15:59:49.432Z,13.50
2023-03-24T16:02:34.473Z,10.70
2023-03-24T16:05:19.769Z,9.20
2023-03-24T16:08:03.589Z,7.40
2023-03-24T16:10:43.216Z,10.20
2023-03-24T16:13:20.705Z,18.50
2023-03-24T16:16:01.036Z,8.50
2023-03-24T16:18:37.372Z,11.40
2023-03-24T16:21:16.698Z,6.80
2023-03-24T16:23:51.404Z,7.80
2023-03-24T16:26:24.780Z,7.50
2023-03-24T16:29:01.802Z,7.80
2023-03-24T16:31:36.154Z,8.00
2023-03-24T16:34:11.566Z,7.40
2023-03-24T16:36:44.959Z,7.70
2023-03-24T16:39:18.769Z,10.50
2023-03-24T16:41:52.997Z,9.40
2023-03-24T16:44:27.202Z,9.00
2023-03-24T16:47:01.844Z,9.80
2023-03-24T16:49:38.112Z,50.30
2023-03-24T16:52:16.096Z,10.80
2023-03-24T16:54:52.949Z,9.50
2023-03-24T16:57:25.507Z,8.70
2023-03-24T17:00:01.454Z,9.20
2023-03-24T17:02:37.872Z,13.20
2023-03-24T20:19:11.544Z,15.00
2023-03-24T20:21:40.883Z,16.80
2023-03-24T20:24:11.168Z,14.90
2023-03-24T20:26:42.708Z,23.60
2023-03-24T20:29:12.750Z,21.10
2023-03-24T20:31:42.922Z,31.00
2023-03-24T20:34:11.720Z,18.20
2023-03-24T20:36:42.802Z,11.90
2023-03-24T20:39:18.543Z,10.40
2023-03-24T20:41:49.406Z,13.70
2023-03-24T20:44:17.960Z,10.30
2023-03-24T20:46:48.161Z,10.90
2023-03-24T20:49:17.186Z,10.10
2023-03-24T20:51:46.905Z,14.40
2023-03-24T20:54:16.996Z,25.50
2023-03-24T20:56:46.691Z,10.50
2023-03-24T20:59:18.325Z,20.20
2023-03-24T21:01:49.472Z,17.60
2023-03-24T21:04:19.755Z,11.60
2023-03-24T21:06:48.740Z,11.20
2023-03-24T21:09:21.724Z,14.70
2023-03-24T21:11:50.362Z,10.70
2023-03-24T21:14:21.372Z,14.50
2023-03-24T21:16:52.156Z,14.90
2023-03-24T21:19:22.320Z,11.70
2023-03-24T21:21:51.171Z,17.90
2023-03-24T21:24:25.008Z,12.20
2023-03-24T21:26:56.448Z,13.10
2023-03-24T21:29:27.393Z,11.60
2023-03-24T21:31:57.624Z,13.90
2023-03-24T21:34:28.442Z,13.80
2023-03-24T21:37:00.928Z,13.20
2023-03-24T21:39:32.903Z,11.00
2023-03-24T21:42:02.787Z,10.70
2023-03-24T21:44:33.960Z,11.80
2023-03-24T21:47:02.557Z,12.00
2023-03-24T21:49:33.294Z,14.60
2023-03-24T21:52:04.194Z,10.40
2023-03-24T21:54:34.220Z,11.70
2023-03-24T21:57:03.400Z,13.40
2023-03-24T21:59:37.142Z,11.00
2023-03-24T22:02:13.795Z,12.90
2023-03-24T22:04:46.495Z,11.80
2023-03-24T22:07:21.876Z,13.30
2023-03-24T22:09:56.221Z,14.70
2023-03-24T22:12:26.599Z,17.50
2023-03-24T22:14:55.841Z,12.40
2023-03-24T22:17:30.174Z,13.80
2023-03-24T22:19:58.739Z,12.30
2023-03-24T22:22:29.365Z,12.70
2023-03-24T22:24:57.959Z,8.60
2023-03-24T22:27:26.703Z,11.30
2023-03-24T22:29:55.169Z,12.50
2023-03-24T22:32:24.335Z,6.90
2023-03-24T22:34:52.837Z,7.10
2023-03-24T22:37:21.338Z,6.70
2023-03-24T22:39:49.927Z,6.50
2023-03-24T22:42:18.386Z,6.60
2023-03-24T22:44:46.910Z,7.00
2023-03-24T22:47:15.577Z,6.90
2023-03-24T22:49:47.309Z,7.40
2023-03-24T22:52:15.811Z,7.80
2023-03-24T22:54:44.360Z,6.40
2023-03-24T22:57:13.408Z,6.80
2023-03-24T22:59:41.769Z,6.70
2023-03-24T23:02:10.700Z,6.80
2023-03-24T23:04:39.850Z,7.30
2023-03-24T23:07:08.518Z,6.50
2023-03-24T23:09:37.686Z,7.00
2023-03-24T23:12:07.006Z,7.00
2023-03-24T23:14:37.473Z,6.50
2023-03-24T23:17:08.847Z,6.60
2023-03-24T23:19:37.883Z,6.70
2023-03-24T23:22:07.676Z,6.70
2023-03-24T23:24:38.744Z,7.10
2023-03-24T23:27:07.243Z,7.30
2023-03-24T23:29:39.639Z,7.40
2023-03-24T23:32:08.443Z,7.10
2023-03-24T23:34:37.465Z,7.50
2023-03-24T23:37:05.840Z,7.20
2023-03-24T23:39:36.072Z,7.30
2023-03-24T23:42:05.206Z,7.20
2023-03-24T23:44:33.755Z,7.10
2023-03-24T23:47:02.284Z,7.30
2023-03-24T23:49:30.856Z,7.60
2023-03-24T23:51:59.200Z,7.00
2023-03-24T23:54:28.540Z,6.80
2023-03-24T23:56:56.974Z,7.10
2023-03-24T23:59:25.489Z,7.40
